Overview Statistics Trail Chart Weather Telemetry Raw packets
 

This is the latest recevied weather packets stored in our database for station/object IZ5MJO-13. If no packets are shown the sender has not sent any weather packets the latest 10 day(s).

<< 38 39 40 41 42 43 44 >>
Time Temp. Humidity Pressure Rain* Wind** Luminosity Snow
1787807995 23.89° C 56% 1007.3 hPa - - - -
1787807095 23.89° C 56% 1007.4 hPa - - - -
1787806194 23.89° C 56% 1007.3 hPa - - - -
1787805294 23.33° C 56% 1007.4 hPa - - - -
1787804394 23.33° C 58% 1007.1 hPa - - - -
1787803494 23.33° C 58% 1007.3 hPa - - - -
1787802593 23.33° C 58% 1007.2 hPa - - - -
1787801693 22.78° C 60% 1007.1 hPa - - - -
1787800793 22.78° C 60% 1007 hPa - - - -
1787799893 22.78° C 62% 1006.7 hPa - - - -
1787798993 22.22° C 62% 1006.6 hPa - - - -
1787798093 22.22° C 63% 1007.6 hPa - - - -
1787797192 21.67° C 61% 1008.2 hPa - - - -
1787796292 21.67° C 61% 1007.9 hPa - - - -
1787795704 23.89° C 57% 1006.8 hPa - - - -
1787795694 23.33° C 59% 1006.8 hPa - - - -
1787795646 23.89° C 56% 1006.8 hPa - - - -
1787795628 23.89° C 55% 1007.3 hPa - - - -
1787795392 22.22° C 57% 1007.7 hPa - - - -
1787794492 23.33° C 53% 1007.5 hPa - - - -
1787793591 23.89° C 56% 1007 hPa - - - -
1787792697 23.89° C 55% 1007.2 hPa - - - -
1787791790 23.89° C 57% 1006.8 hPa - - - -
1787790890 23.33° C 59% 1006.8 hPa - - - -
1787789990 23.89° C 56% 1006.8 hPa - - - -

* Rain since midnight (hover to see other rain measurements)
** Current wind speed in m/s (hover to see current wind gust speed)